Burns City, Indiana
Current Conditions -  °F | °C
As of 8:15 AM on Sunday 23 Nov 2014 (Local Time) from KDCY Reporting Station
Broken Clouds Broken Clouds  
Wind Chill: 54°   Ceiling: 3200
Heat Index: 54°   Visibility: 10mi
Dew Point: 43°   Wind: 13mph
Humidity: 66%   Direction: 150°SSE
Pressure: 29.85"   Gusts: 18mph
Location:  38.6074°N, 86.9234°W
Report Text: KDCY 231415Z AUTO 15011G16KT 10SM BKN032 BKN070 BKN080 12/06 A2985 RMK AO2 T01240062
Loading
Personal Weather Stations






























Interactive Weather Map New forecast layout! Learn more

10-Day Weather Forecast

Advertisements
Track Severe Weather on mobile